Time;durP1;ratioP1;P1;durP2;ratioP2;P2;SDS_P1;SDS_P2;PMS_P1;PMS_P2;Temp;Humidity;BMP_temperature;BMP_pressure;BME280_temperature;BME280_humidity;BME280_pressure;Samples;Min_cycle;Max_cycle;Signal;HPM_P1;HPM_P2
2022/09/13 00:01:57;;;;;;;2.80;2.33;;;19.60;99.90;;;;;;5082931;28;20423;-68
2022/09/13 00:04:23;;;;;;;3.38;2.00;;;19.60;99.90;;;;;;5080183;28;20214;-72
2022/09/13 00:06:51;;;;;;;2.40;2.00;;;19.60;99.90;;;;;;5089124;28;20203;-69
2022/09/13 00:09:19;;;;;;;3.17;2.20;;;19.50;99.90;;;;;;5083370;28;20172;-70
2022/09/13 00:11:44;;;;;;;2.70;2.30;;;19.50;99.90;;;;;;5086791;28;20168;-70
2022/09/13 00:14:12;;;;;;;2.35;2.15;;;19.50;99.90;;;;;;5072395;28;20215;-70
2022/09/13 00:16:38;;;;;;;2.50;2.20;;;19.40;99.90;;;;;;5085141;28;20168;-69
2022/09/13 00:19:03;;;;;;;2.28;1.98;;;19.40;99.90;;;;;;5084852;28;20256;-68
2022/09/13 00:21:29;;;;;;;2.85;2.05;;;19.40;99.90;;;;;;5075501;28;20276;-69
2022/09/13 00:23:57;;;;;;;2.30;2.08;;;19.40;99.90;;;;;;5080770;28;20285;-69
2022/09/13 00:26:25;;;;;;;2.88;2.30;;;19.30;99.90;;;;;;5080652;28;20199;-69
2022/09/13 00:28:53;;;;;;;2.63;2.33;;;19.30;99.90;;;;;;5082525;28;20198;-69
2022/09/13 00:31:22;;;;;;;2.42;2.22;;;19.30;99.90;;;;;;5080851;28;20259;-68
2022/09/13 00:33:47;;;;;;;2.50;2.25;;;19.30;99.90;;;;;;5088125;28;20169;-69
2022/09/13 00:36:14;;;;;;;2.28;2.08;;;19.30;99.90;;;;;;5092346;28;20190;-68
2022/09/13 00:38:41;;;;;;;2.40;2.20;;;19.30;99.90;;;;;;5087266;28;20236;-67
2022/09/13 00:41:18;;;;;;;2.20;2.00;;;19.20;99.90;;;;;;5087147;28;20180;-68
2022/09/13 00:43:45;;;;;;;2.45;1.83;;;19.30;99.90;;;;;;5075635;28;20176;-70
2022/09/13 00:46:25;;;;;;;2.60;2.13;;;19.20;99.90;;;;;;5076667;28;20373;-68
2022/09/13 00:48:57;;;;;;;1.90;1.80;;;19.30;99.90;;;;;;5086356;28;20182;-69
2022/09/13 00:51:26;;;;;;;1.88;1.73;;;19.30;99.90;;;;;;5085230;28;20176;-69
2022/09/13 00:53:58;;;;;;;2.08;1.88;;;19.30;99.90;;;;;;5086832;28;20160;-69
2022/09/13 00:56:33;;;;;;;2.15;1.95;;;19.40;99.90;;;;;;5083914;28;20244;-67
2022/09/13 00:59:06;;;;;;;3.10;2.00;;;19.40;99.90;;;;;;5079381;28;20179;-65
2022/09/13 01:01:39;;;;;;;2.35;1.98;;;19.40;99.90;;;;;;5086690;28;20184;-69
2022/09/13 01:04:05;;;;;;;2.97;1.80;;;19.40;99.90;;;;;;5087012;28;20206;-70
2022/09/13 01:06:36;;;;;;;2.45;2.00;;;19.40;99.90;;;;;;5081149;28;20312;-69
2022/09/13 01:09:03;;;;;;;2.20;2.00;;;19.40;99.90;;;;;;5087288;28;20180;-69
2022/09/13 01:11:41;;;;;;;4.28;2.08;;;19.50;99.90;;;;;;5079158;28;20176;-68
2022/09/13 01:14:10;;;;;;;2.88;2.03;;;19.50;99.90;;;;;;5077800;28;20172;-69
2022/09/13 01:16:36;;;;;;;2.17;1.98;;;19.50;99.90;;;;;;5080412;28;20199;-69
2022/09/13 01:19:01;;;;;;;2.30;2.00;;;19.50;99.90;;;;;;5082089;28;20171;-69
2022/09/13 01:21:45;;;;;;;2.15;1.95;;;19.50;99.90;;;;;;5078756;28;20180;-67
2022/09/13 01:24:40;;;;;;;2.22;2.03;;;19.50;99.90;;;;;;5105681;28;20207;-70
2022/09/13 01:27:14;;;;;;;2.20;2.00;;;19.50;99.90;;;;;;5087519;28;20249;-69
2022/09/13 01:29:46;;;;;;;1.85;1.75;;;19.50;99.90;;;;;;5097691;28;20190;-66
2022/09/13 01:32:13;;;;;;;2.72;2.22;;;19.40;99.90;;;;;;5105238;28;20181;-65
2022/09/13 01:35:24;;;;;;;2.10;1.90;;;19.40;99.90;;;;;;5078653;28;20181;-70
2022/09/13 01:37:53;;;;;;;1.85;1.75;;;19.40;99.90;;;;;;5086296;28;20278;-68
2022/09/13 01:40:52;;;;;;;3.50;2.08;;;19.40;99.90;;;;;;5072826;28;20177;-70
2022/09/13 01:43:23;;;;;;;2.30;2.00;;;19.40;99.90;;;;;;5087052;28;20172;-69
2022/09/13 01:45:58;;;;;;;2.00;1.80;;;19.30;99.90;;;;;;5077664;28;20212;-69
2022/09/13 01:48:32;;;;;;;3.35;2.20;;;19.30;99.90;;;;;;5089793;28;20172;-68
2022/09/13 01:51:20;;;;;;;3.67;2.20;;;19.30;99.90;;;;;;5089042;28;20214;-69
2022/09/13 01:54:10;;;;;;;3.58;2.45;;;19.30;99.90;;;;;;5075352;28;20203;-70
2022/09/13 01:56:46;;;;;;;2.65;2.15;;;19.30;99.90;;;;;;5087915;28;20183;-70
2022/09/13 01:59:51;;;;;;;2.30;2.00;;;19.30;99.90;;;;;;5082694;28;20179;-70
2022/09/13 02:02:45;;;;;;;2.55;1.80;;;19.30;99.90;;;;;;5077078;28;20184;-70
2022/09/13 02:05:17;;;;;;;3.03;2.00;;;19.30;99.90;;;;;;5076874;28;20233;-70
2022/09/13 02:07:54;;;;;;;1.90;1.80;;;19.30;99.90;;;;;;5080902;28;20179;-70
2022/09/13 02:10:35;;;;;;;1.98;1.88;;;19.30;99.90;;;;;;5080137;28;20187;-70
2022/09/13 02:13:04;;;;;;;2.30;2.10;;;19.30;99.90;;;;;;5072348;28;20201;-70
2022/09/13 02:15:42;;;;;;;2.58;1.85;;;19.30;99.90;;;;;;5083851;28;20180;-71
2022/09/13 02:18:17;;;;;;;2.20;2.00;;;19.30;99.90;;;;;;5085334;28;20176;-70
2022/09/13 02:20:48;;;;;;;1.98;1.88;;;19.30;99.90;;;;;;5085319;28;20223;-70
2022/09/13 02:23:19;;;;;;;2.53;1.90;;;19.30;99.90;;;;;;5084605;28;20179;-69
2022/09/13 02:25:46;;;;;;;2.10;1.90;;;19.30;99.90;;;;;;5087509;28;20269;-71
2022/09/13 02:28:19;;;;;;;2.17;1.98;;;19.30;99.90;;;;;;5079257;28;20200;-70
2022/09/13 02:30:50;;;;;;;2.25;1.80;;;19.30;99.90;;;;;;5087081;28;20183;-68
2022/09/13 02:33:25;;;;;;;1.90;1.70;;;19.30;99.90;;;;;;5086530;28;20199;-70
2022/09/13 02:35:59;;;;;;;2.38;2.15;;;19.30;99.90;;;;;;5076018;28;20216;-70
2022/09/13 02:38:51;;;;;;;2.47;2.28;;;19.30;99.90;;;;;;5077289;28;20172;-66
2022/09/13 02:41:17;;;;;;;2.88;2.10;;;19.30;99.90;;;;;;5083196;28;20244;-70
2022/09/13 02:43:50;;;;;;;6.30;2.00;;;19.30;99.90;;;;;;5067385;28;20227;-69
2022/09/13 02:46:19;;;;;;;3.03;1.95;;;19.30;99.90;;;;;;5067688;28;20286;-70
2022/09/13 02:49:01;;;;;;;2.78;1.98;;;19.30;99.90;;;;;;5084267;28;20181;-70
2022/09/13 02:51:45;;;;;;;2.92;1.92;;;19.30;99.90;;;;;;5080999;28;20180;-68
2022/09/13 02:54:37;;;;;;;2.55;2.00;;;19.30;99.90;;;;;;5081689;28;20192;-70
2022/09/13 02:57:13;;;;;;;2.53;2.30;;;19.30;99.90;;;;;;5072464;28;20202;-70
2022/09/13 02:59:41;;;;;;;2.15;1.95;;;19.30;99.90;;;;;;5080379;28;20180;-70
2022/09/13 03:02:14;;;;;;;2.25;2.05;;;19.30;99.90;;;;;;5068451;28;20207;-69
2022/09/13 03:04:43;;;;;;;2.10;1.90;;;19.30;99.90;;;;;;5076025;28;20184;-69
2022/09/13 03:07:11;;;;;;;2.63;2.08;;;19.30;99.90;;;;;;5081177;28;20200;-70
2022/09/13 03:09:51;;;;;;;3.38;2.05;;;19.30;99.90;;;;;;5078124;28;20193;-70
2022/09/13 03:12:42;;;;;;;2.17;1.88;;;19.30;99.90;;;;;;5082946;28;20221;-69
2022/09/13 03:15:46;;;;;;;2.47;2.08;;;19.30;99.90;;;;;;5081850;28;20264;-69
2022/09/13 03:18:29;;;;;;;2.35;2.10;;;19.40;99.90;;;;;;5076971;28;20226;-70
2022/09/13 03:21:25;;;;;;;2.15;1.95;;;19.40;99.90;;;;;;5100180;28;20183;-70
2022/09/13 03:24:32;;;;;;;3.90;1.77;;;19.40;99.90;;;;;;5083134;28;20264;-67
2022/09/13 03:27:20;;;;;;;2.42;2.00;;;19.40;99.90;;;;;;5082865;28;20199;-70
2022/09/13 03:29:49;;;;;;;2.13;1.83;;;19.40;99.90;;;;;;5079700;28;20169;-70
2022/09/13 03:32:27;;;;;;;1.98;1.80;;;19.40;99.90;;;;;;5074136;28;20184;-70
2022/09/13 03:35:26;;;;;;;2.72;2.10;;;19.40;99.90;;;;;;5063053;28;20168;-71
2022/09/13 03:38:00;;;;;;;1.77;1.67;;;19.40;99.90;;;;;;5073617;28;20180;-70
2022/09/13 03:40:34;;;;;;;2.08;1.88;;;19.40;99.90;;;;;;5079041;28;20203;-70
2022/09/13 03:43:15;;;;;;;3.38;2.10;;;19.40;99.90;;;;;;5075191;28;20246;-68
2022/09/13 03:45:46;;;;;;;2.70;2.30;;;19.40;99.90;;;;;;5081115;28;20199;-70
2022/09/13 03:48:14;;;;;;;2.13;1.92;;;19.40;99.90;;;;;;5096678;28;20212;-70
2022/09/13 03:50:45;;;;;;;2.67;2.15;;;19.40;99.90;;;;;;5082752;28;20191;-69
2022/09/13 03:53:14;;;;;;;2.78;2.33;;;19.40;99.90;;;;;;5081936;28;20247;-69
2022/09/13 03:55:41;;;;;;;3.40;2.42;;;19.40;99.90;;;;;;5079072;28;20191;-70
2022/09/13 03:58:12;;;;;;;3.08;2.40;;;19.40;99.90;;;;;;5082925;28;20172;-68
2022/09/13 04:00:40;;;;;;;2.35;2.15;;;19.40;99.90;;;;;;5083534;28;20184;-70
2022/09/13 04:03:06;;;;;;;2.47;2.05;;;19.40;99.90;;;;;;5082698;28;20191;-70
2022/09/13 04:05:33;;;;;;;2.83;2.45;;;19.40;99.90;;;;;;5069934;28;20192;-69
2022/09/13 04:08:00;;;;;;;3.95;2.40;;;19.30;99.90;;;;;;5074261;28;20199;-70
2022/09/13 04:10:26;;;;;;;3.45;2.22;;;19.30;99.90;;;;;;5061531;28;20279;-69
2022/09/13 04:12:53;;;;;;;2.58;2.20;;;19.30;99.90;;;;;;5072885;28;20236;-70
2022/09/13 04:15:21;;;;;;;3.63;2.10;;;19.40;99.90;;;;;;5078086;28;20190;-67
2022/09/13 04:17:47;;;;;;;4.35;2.63;;;19.40;99.90;;;;;;5076432;28;20200;-70
2022/09/13 04:20:13;;;;;;;2.90;2.20;;;19.40;99.90;;;;;;5078180;28;20172;-69
2022/09/13 04:22:38;;;;;;;3.17;2.42;;;19.40;99.90;;;;;;5074125;28;20271;-69
2022/09/13 04:25:05;;;;;;;4.55;2.35;;;19.40;99.90;;;;;;5081621;28;20223;-69
2022/09/13 04:27:34;;;;;;;2.88;2.28;;;19.40;99.90;;;;;;5085191;28;20182;-67
2022/09/13 04:30:02;;;;;;;2.60;2.33;;;19.40;99.90;;;;;;5091704;28;20186;-66
2022/09/13 04:32:28;;;;;;;4.32;2.42;;;19.40;99.90;;;;;;5085504;28;20195;-68
2022/09/13 04:34:57;;;;;;;2.60;2.28;;;19.40;99.90;;;;;;5073990;28;20161;-69
2022/09/13 04:37:23;;;;;;;2.92;2.35;;;19.40;99.90;;;;;;5062032;28;20168;-69
2022/09/13 04:39:51;;;;;;;3.60;2.40;;;19.50;99.90;;;;;;5074016;28;20192;-72
2022/09/13 04:42:18;;;;;;;3.17;2.47;;;19.50;99.90;;;;;;5088725;28;20187;-75
2022/09/13 04:44:44;;;;;;;2.40;2.20;;;19.50;99.90;;;;;;5083422;28;20152;-74
2022/09/13 04:47:11;;;;;;;2.20;2.00;;;19.50;99.90;;;;;;5083640;28;20200;-73
2022/09/13 04:49:38;;;;;;;3.83;2.33;;;19.50;99.90;;;;;;5101507;28;20165;-70
2022/09/13 04:52:04;;;;;;;4.93;2.58;;;19.50;99.90;;;;;;5090468;28;20239;-76
2022/09/13 04:54:31;;;;;;;2.92;2.40;;;19.50;99.90;;;;;;5092346;28;20172;-70
2022/09/13 04:56:59;;;;;;;2.58;2.10;;;19.50;99.90;;;;;;5074147;28;20192;-73
2022/09/13 04:59:25;;;;;;;3.17;2.50;;;19.50;99.90;;;;;;5084127;28;20273;-76
2022/09/13 05:01:53;;;;;;;2.80;2.25;;;19.50;99.90;;;;;;5078376;28;20199;-76
2022/09/13 05:04:20;;;;;;;3.00;2.20;;;19.50;99.90;;;;;;5079961;28;20184;-77
2022/09/13 05:06:49;;;;;;;2.72;2.15;;;19.50;99.90;;;;;;5076482;28;20257;-76
2022/09/13 05:09:14;;;;;;;2.30;2.10;;;19.40;99.90;;;;;;5078323;28;20396;-75
2022/09/13 05:11:41;;;;;;;2.22;2.00;;;19.40;99.90;;;;;;5070007;28;20232;-77
2022/09/13 05:14:10;;;;;;;2.20;2.00;;;19.40;99.90;;;;;;5080364;28;20263;-77
2022/09/13 05:16:35;;;;;;;3.15;2.28;;;19.40;99.90;;;;;;5085464;28;20192;-75
2022/09/13 05:19:01;;;;;;;2.67;2.20;;;19.40;99.90;;;;;;5092201;28;20180;-71
2022/09/13 05:21:28;;;;;;;2.80;2.22;;;19.40;99.90;;;;;;5090851;28;20244;-72
2022/09/13 05:23:57;;;;;;;3.13;2.53;;;19.40;99.90;;;;;;5105762;28;20215;-71
2022/09/13 05:26:30;;;;;;;4.13;2.42;;;19.40;99.90;;;;;;5082479;28;20240;-75
2022/09/13 05:28:56;;;;;;;3.58;2.10;;;19.40;99.90;;;;;;5086441;28;20172;-77
2022/09/13 05:31:27;;;;;;;2.40;2.15;;;19.40;99.90;;;;;;5080429;28;20184;-76
2022/09/13 05:33:58;;;;;;;3.63;2.50;;;19.40;99.90;;;;;;5078774;28;20267;-75
2022/09/13 05:36:25;;;;;;;2.60;2.20;;;19.50;99.90;;;;;;5090702;28;20237;-69
2022/09/13 05:38:52;;;;;;;7.03;5.88;;;19.50;99.90;;;;;;5082867;28;20215;-76
2022/09/13 05:41:18;;;;;;;3.80;3.40;;;19.50;99.90;;;;;;5083462;28;20180;-72
2022/09/13 05:43:46;;;;;;;3.72;3.08;;;19.50;99.90;;;;;;5080849;28;20219;-71
2022/09/13 05:46:17;;;;;;;5.32;3.03;;;19.50;99.90;;;;;;5087241;28;20212;-74
2022/09/13 05:48:42;;;;;;;2.80;2.50;;;19.50;99.90;;;;;;5094035;28;20168;-69
2022/09/13 05:51:17;;;;;;;3.50;2.70;;;19.50;99.90;;;;;;5084046;28;20183;-75
2022/09/13 05:53:53;;;;;;;4.30;2.90;;;19.50;99.90;;;;;;5092039;28;20180;-75
2022/09/13 05:56:31;;;;;;;6.95;5.35;;;19.50;99.90;;;;;;5081871;28;20179;-72
2022/09/13 05:58:57;;;;;;;5.68;3.78;;;19.50;99.90;;;;;;5078516;28;20199;-73
2022/09/13 06:01:27;;;;;;;5.00;3.10;;;19.50;99.90;;;;;;5094344;28;20187;-73
2022/09/13 06:03:57;;;;;;;3.25;2.90;;;19.50;99.90;;;;;;5085939;28;20169;-74
2022/09/13 06:06:26;;;;;;;2.75;2.45;;;19.50;99.90;;;;;;5092182;28;20198;-73
2022/09/13 06:08:56;;;;;;;4.25;2.63;;;19.50;99.90;;;;;;5084140;28;20168;-69
2022/09/13 06:11:25;;;;;;;2.95;2.30;;;19.60;99.90;;;;;;5094103;28;20183;-76
2022/09/13 06:13:52;;;;;;;3.25;2.60;;;19.60;99.90;;;;;;5083433;28;20156;-75
2022/09/13 06:16:17;;;;;;;4.03;2.85;;;19.60;99.90;;;;;;5093913;28;20187;-70
2022/09/13 06:18:43;;;;;;;2.60;2.40;;;19.60;99.90;;;;;;5089850;28;20180;-76
2022/09/13 06:21:16;;;;;;;4.20;2.30;;;19.60;99.90;;;;;;5095803;28;20168;-72
2022/09/13 06:23:46;;;;;;;3.55;2.30;;;19.60;99.90;;;;;;5111558;28;20328;-76
2022/09/13 06:26:14;;;;;;;2.50;2.20;;;19.60;99.90;;;;;;5093480;28;20210;-74
2022/09/13 06:28:41;;;;;;;2.83;2.30;;;19.60;99.90;;;;;;5098326;28;20209;-69
2022/09/13 06:31:12;;;;;;;5.15;2.60;;;19.70;99.90;;;;;;5093625;28;20207;-74
2022/09/13 06:33:40;;;;;;;4.05;2.50;;;19.70;99.90;;;;;;5092037;28;20198;-75
2022/09/13 06:36:16;;;;;;;2.85;2.25;;;19.70;99.90;;;;;;5077699;28;20177;-72
2022/09/13 06:38:47;;;;;;;2.45;2.15;;;19.80;99.90;;;;;;5094343;28;20284;-71
2022/09/13 06:41:17;;;;;;;2.72;2.30;;;19.80;99.90;;;;;;5109239;28;20197;-73
2022/09/13 06:43:44;;;;;;;4.38;2.60;;;19.80;99.90;;;;;;5092314;28;20187;-76
2022/09/13 06:46:12;;;;;;;2.53;2.33;;;19.90;99.90;;;;;;5079691;28;20203;-70
2022/09/13 06:48:44;;;;;;;5.05;2.10;;;19.90;99.90;;;;;;5086961;28;20188;-75
2022/09/13 06:51:17;;;;;;;2.67;2.17;;;19.90;99.90;;;;;;5093575;28;20206;-76
2022/09/13 06:53:47;;;;;;;2.53;2.30;;;20.00;99.90;;;;;;5096790;28;20164;-73
2022/09/13 06:56:16;;;;;;;2.38;2.03;;;20.00;99.90;;;;;;5097232;28;20190;-76
2022/09/13 06:58:48;;;;;;;3.15;2.13;;;20.10;99.90;;;;;;5078013;28;20177;-74
2022/09/13 07:01:14;;;;;;;3.78;3.03;;;20.20;99.90;;;;;;5082881;28;20155;-72
2022/09/13 07:03:48;;;;;;;3.00;2.38;;;20.20;99.90;;;;;;5096521;28;20197;-69
2022/09/13 07:06:17;;;;;;;3.70;2.55;;;20.30;99.90;;;;;;5085936;28;20221;-73
2022/09/13 07:08:44;;;;;;;3.95;2.33;;;20.30;99.90;;;;;;5092038;28;20172;-75
2022/09/13 07:11:13;;;;;;;2.13;1.92;;;20.30;99.90;;;;;;5078510;28;20192;-76
2022/09/13 07:13:40;;;;;;;2.53;2.20;;;20.40;99.90;;;;;;5087862;28;20233;-75
2022/09/13 07:16:08;;;;;;;2.00;1.80;;;20.40;99.90;;;;;;5087919;28;20181;-74
2022/09/13 07:18:36;;;;;;;3.55;1.90;;;20.40;99.90;;;;;;5082660;28;20168;-67
2022/09/13 07:21:05;;;;;;;2.00;1.80;;;20.50;99.90;;;;;;5088171;28;20191;-74
2022/09/13 07:23:38;;;;;;;2.35;2.00;;;20.50;99.90;;;;;;5088175;28;20206;-72
2022/09/13 07:26:06;;;;;;;2.28;1.80;;;20.60;99.90;;;;;;5075461;28;20207;-75
2022/09/13 07:28:36;;;;;;;3.72;2.17;;;20.60;99.90;;;;;;5092768;28;20218;-76
2022/09/13 07:31:14;;;;;;;2.00;1.80;;;20.70;99.90;;;;;;5092508;28;20168;-75
2022/09/13 07:33:43;;;;;;;2.00;1.85;;;20.70;99.90;;;;;;5093440;28;20235;-73
2022/09/13 07:36:10;;;;;;;2.20;1.80;;;20.70;99.90;;;;;;5093911;28;20164;-76
2022/09/13 07:38:39;;;;;;;2.83;1.98;;;20.80;99.90;;;;;;5093850;28;20180;-75
2022/09/13 07:41:07;;;;;;;4.60;2.60;;;20.90;99.90;;;;;;5087556;28;20200;-73
2022/09/13 07:43:34;;;;;;;2.40;2.20;;;20.90;99.90;;;;;;5094837;28;20206;-74
2022/09/13 07:46:04;;;;;;;3.13;2.15;;;21.00;99.90;;;;;;5094172;28;20187;-74
2022/09/13 07:48:34;;;;;;;2.75;2.25;;;21.10;99.90;;;;;;5091293;28;20175;-72
2022/09/13 07:51:01;;;;;;;2.53;2.22;;;21.20;99.90;;;;;;5095953;28;20178;-69
2022/09/13 07:53:30;;;;;;;3.20;2.30;;;21.20;99.90;;;;;;5094819;28;20219;-76
2022/09/13 07:56:13;;;;;;;2.78;2.10;;;21.30;99.90;;;;;;5085174;28;20188;-71
2022/09/13 07:58:41;;;;;;;2.20;2.00;;;21.30;99.90;;;;;;5091351;28;20180;-70
2022/09/13 08:01:13;;;;;;;2.17;1.73;;;21.40;99.90;;;;;;5097111;28;20183;-72
2022/09/13 08:03:41;;;;;;;2.70;1.83;;;21.40;99.90;;;;;;5094849;28;20198;-76
2022/09/13 08:06:08;;;;;;;2.40;1.80;;;21.50;99.90;;;;;;5091669;28;20200;-73
2022/09/13 08:08:36;;;;;;;2.08;1.70;;;21.60;99.90;;;;;;5098154;28;20159;-74
2022/09/13 08:11:05;;;;;;;3.05;1.92;;;21.70;99.90;;;;;;5095637;28;20176;-72
2022/09/13 08:13:33;;;;;;;4.65;1.95;;;21.70;99.90;;;;;;5084966;28;20187;-72
2022/09/13 08:16:03;;;;;;;3.13;1.90;;;21.90;99.90;;;;;;5089657;28;20242;-70
2022/09/13 08:18:32;;;;;;;3.13;1.77;;;21.90;99.90;;;;;;5082928;28;20196;-71
2022/09/13 08:20:59;;;;;;;2.10;1.50;;;22.00;99.90;;;;;;5091741;28;20172;-75
2022/09/13 08:23:26;;;;;;;3.28;2.00;;;22.20;99.90;;;;;;5072887;28;20184;-73
2022/09/13 08:25:52;;;;;;;2.33;1.90;;;22.20;99.90;;;;;;5092647;28;20215;-75
2022/09/13 08:28:22;;;;;;;2.13;1.92;;;22.30;99.90;;;;;;5091348;28;20232;-72
2022/09/13 08:30:53;;;;;;;4.90;4.13;;;22.40;99.90;;;;;;5092496;28;20182;-73
2022/09/13 08:33:19;;;;;;;2.95;2.65;;;22.50;99.90;;;;;;5095205;28;20191;-71
2022/09/13 08:35:51;;;;;;;3.00;2.67;;;22.60;99.90;;;;;;5090355;28;20183;-72
2022/09/13 08:38:19;;;;;;;2.35;2.03;;;22.70;99.90;;;;;;5081473;28;20197;-75
2022/09/13 08:41:01;;;;;;;2.00;1.83;;;22.70;99.90;;;;;;5094534;28;20156;-69
2022/09/13 08:43:48;;;;;;;3.05;1.90;;;22.80;99.90;;;;;;5086819;28;20176;-74
2022/09/13 08:46:33;;;;;;;2.20;1.90;;;22.90;99.90;;;;;;5081186;28;20200;-71
2022/09/13 08:49:04;;;;;;;2.53;1.50;;;23.00;99.90;;;;;;5078172;28;20243;-74
2022/09/13 08:51:31;;;;;;;2.08;1.70;;;23.10;99.90;;;;;;5082379;28;20399;-72
2022/09/13 08:53:58;;;;;;;1.60;1.45;;;23.20;99.90;;;;;;5097432;28;20227;-70
2022/09/13 08:56:55;;;;;;;3.17;1.50;;;23.30;99.90;;;;;;5093975;28;20200;-75
2022/09/13 08:59:50;;;;;;;2.40;1.52;;;23.40;99.90;;;;;;5041559;28;20195;-75
2022/09/13 09:02:43;;;;;;;3.53;1.95;;;23.50;99.90;;;;;;5096242;28;20156;-73
2022/09/13 09:05:19;;;;;;;2.25;1.50;;;23.60;99.90;;;;;;5093003;28;20172;-74
2022/09/13 09:08:04;;;;;;;2.17;1.50;;;23.70;99.90;;;;;;5093799;28;20178;-74
2022/09/13 09:10:43;;;;;;;1.40;1.30;;;23.80;99.90;;;;;;5094033;28;20275;-68
2022/09/13 09:13:40;;;;;;;2.80;1.67;;;23.90;99.90;;;;;;5095080;28;20168;-71
2022/09/13 09:16:35;;;;;;;1.92;1.60;;;24.00;99.90;;;;;;5084049;28;20196;-75
2022/09/13 09:19:23;;;;;;;2.80;2.50;;;24.10;99.90;;;;;;5091939;28;20184;-73
2022/09/13 09:21:51;;;;;;;2.70;2.00;;;24.20;99.90;;;;;;5074343;28;20196;-76
2022/09/13 09:24:26;;;;;;;1.95;1.77;;;24.30;99.90;;;;;;5086154;28;20195;-75
2022/09/13 09:26:56;;;;;;;1.92;1.67;;;24.40;99.90;;;;;;5083462;28;20203;-74
2022/09/13 09:29:25;;;;;;;4.32;2.03;;;24.50;99.90;;;;;;5074820;28;20169;-74
2022/09/13 09:32:00;;;;;;;2.58;1.70;;;24.60;99.90;;;;;;5095095;28;20168;-70
2022/09/13 09:34:50;;;;;;;2.80;2.40;;;24.70;99.90;;;;;;5091907;28;20248;-74
2022/09/13 09:37:23;;;;;;;3.42;1.75;;;24.80;99.90;;;;;;5096092;28;20184;-73
2022/09/13 09:39:51;;;;;;;3.45;1.63;;;24.90;99.90;;;;;;5081158;28;20171;-72
2022/09/13 09:42:27;;;;;;;1.95;1.70;;;25.00;99.90;;;;;;5097993;28;20179;-72
2022/09/13 09:44:56;;;;;;;2.03;1.33;;;25.20;99.90;;;;;;5088165;28;20171;-73
2022/09/13 09:47:25;;;;;;;1.40;1.10;;;25.30;99.90;;;;;;5098958;28;20199;-70
2022/09/13 09:50:13;;;;;;;2.15;1.35;;;25.60;99.90;;;;;;5099080;28;20190;-75
2022/09/13 09:52:52;;;;;;;1.60;1.30;;;25.90;99.90;;;;;;5099254;28;20259;-73
2022/09/13 09:55:31;;;;;;;2.45;1.27;;;26.30;99.90;;;;;;5096706;28;20175;-76
2022/09/13 09:58:00;;;;;;;5.78;4.38;;;26.70;99.90;;;;;;5096344;28;20152;-73
2022/09/13 10:00:31;;;;;;;3.55;3.22;;;27.10;99.90;;;;;;5087650;28;20185;-71
2022/09/13 10:03:04;;;;;;;2.80;2.10;;;27.20;99.90;;;;;;5090165;28;20197;-73
2022/09/13 10:05:31;;;;;;;1.63;1.40;;;27.30;99.90;;;;;;5101853;28;20199;-72
2022/09/13 10:08:06;;;;;;;1.50;1.30;;;27.30;99.90;;;;;;5087265;28;20179;-69
2022/09/13 10:10:37;;;;;;;1.60;1.25;;;27.30;99.90;;;;;;5090095;28;20167;-70
2022/09/13 10:13:13;;;;;;;1.50;1.02;;;27.30;99.90;;;;;;5098567;28;20258;-70
2022/09/13 10:15:57;;;;;;;1.23;0.90;;;27.40;99.90;;;;;;5096904;28;20172;-76
2022/09/13 10:18:35;;;;;;;2.25;1.10;;;27.40;99.90;;;;;;5098734;28;20196;-69
2022/09/13 10:21:22;;;;;;;2.60;1.20;;;27.40;99.90;;;;;;5091917;28;20254;-76
2022/09/13 10:23:52;;;;;;;2.63;1.10;;;27.50;99.90;;;;;;5093480;28;20187;-73
2022/09/13 10:26:23;;;;;;;1.52;1.20;;;27.50;99.90;;;;;;5093872;28;20282;-73
2022/09/13 10:29:02;;;;;;;1.70;1.20;;;27.60;99.90;;;;;;5086295;28;20200;-76
2022/09/13 10:31:33;;;;;;;1.50;1.10;;;27.60;99.90;;;;;;5076449;28;20206;-75
2022/09/13 10:34:04;;;;;;;3.00;1.67;;;27.60;99.90;;;;;;5072977;28;20244;-76
2022/09/13 10:36:39;;;;;;;1.98;1.30;;;27.60;99.90;;;;;;5075012;28;20176;-76
2022/09/13 10:39:12;;;;;;;2.20;1.20;;;27.60;99.90;;;;;;5084139;28;20179;-70
2022/09/13 10:41:44;;;;;;;1.45;1.25;;;27.70;99.90;;;;;;5080421;28;20270;-76
2022/09/13 10:44:31;;;;;;;1.35;1.17;;;27.70;99.90;;;;;;5080317;28;20196;-77
2022/09/13 10:47:02;;;;;;;1.27;1.13;;;27.80;99.90;;;;;;5084063;28;20204;-76
2022/09/13 10:49:49;;;;;;;2.00;1.15;;;27.80;99.90;;;;;;5077151;28;20507;-75
2022/09/13 10:52:33;;;;;;;1.67;1.20;;;27.80;99.90;;;;;;5072892;28;20252;-77
2022/09/13 10:55:21;;;;;;;1.45;1.25;;;27.80;99.90;;;;;;5067936;28;20229;-77
2022/09/13 10:57:48;;;;;;;3.55;1.60;;;27.90;99.90;;;;;;5087019;28;20172;-76
2022/09/13 11:00:29;;;;;;;2.47;1.48;;;28.00;99.90;;;;;;5072826;28;20165;-76
2022/09/13 11:03:10;;;;;;;2.17;1.90;;;28.10;99.90;;;;;;5063156;28;20190;-76
2022/09/13 11:05:47;;;;;;;1.80;1.40;;;28.20;99.90;;;;;;5081817;28;20188;-72
2022/09/13 11:08:26;;;;;;;1.52;1.30;;;28.30;99.90;;;;;;5096103;28;20192;-74
2022/09/13 11:11:19;;;;;;;2.03;1.20;;;28.50;99.90;;;;;;5081898;28;20282;-76
2022/09/13 11:14:18;;;;;;;2.00;1.58;;;28.70;99.90;;;;;;5074503;28;20183;-77
2022/09/13 11:17:10;;;;;;;2.55;1.48;;;28.80;99.90;;;;;;5101898;28;20162;-73
2022/09/13 11:19:51;;;;;;;1.77;1.10;;;28.80;99.90;;;;;;5063155;28;20294;-77
2022/09/13 11:22:35;;;;;;;2.50;1.40;;;28.90;99.90;;;;;;5068807;28;20255;-76
2022/09/13 11:25:04;;;;;;;2.08;1.40;;;29.10;99.90;;;;;;5083159;28;20207;-78
2022/09/13 11:28:00;;;;;;;2.45;1.38;;;29.30;99.90;;;;;;5078822;28;20218;-77
2022/09/13 11:30:30;;;;;;;2.58;1.45;;;29.60;99.90;;;;;;5073867;28;20218;-77
2022/09/13 11:33:20;;;;;;;2.90;1.20;;;29.90;99.90;;;;;;5061238;28;20180;-78
2022/09/13 11:36:13;;;;;;;1.50;1.10;;;30.20;99.90;;;;;;5081864;28;20278;-77
2022/09/13 11:38:57;;;;;;;1.45;1.17;;;30.40;99.90;;;;;;5075588;28;20191;-78
2022/09/13 11:41:35;;;;;;;1.48;1.13;;;30.70;99.90;;;;;;5072295;28;20191;-76
2022/09/13 11:44:40;;;;;;;3.42;1.20;;;30.90;99.90;;;;;;5078425;28;20227;-76
2022/09/13 11:47:34;;;;;;;2.65;1.20;;;30.90;99.90;;;;;;5063479;28;20202;-77
2022/09/13 11:50:22;;;;;;;1.42;1.17;;;30.90;99.90;;;;;;5041728;28;20215;-79
2022/09/13 11:53:03;;;;;;;2.45;1.23;;;30.70;99.90;;;;;;5078405;28;20175;-77
2022/09/13 11:55:39;;;;;;;1.20;1.10;;;30.60;99.90;;;;;;5079725;28;20242;-77
2022/09/13 11:58:14;;;;;;;1.63;1.40;;;30.60;99.90;;;;;;5077458;28;20270;-78
2022/09/13 12:00:52;;;;;;;2.22;1.33;;;30.70;99.90;;;;;;5079065;28;20175;-77
2022/09/13 12:03:54;;;;;;;1.70;1.20;;;30.80;99.90;;;;;;5076803;28;20252;-77
2022/09/13 12:06:32;;;;;;;2.58;1.50;;;30.90;99.90;;;;;;5076969;28;20199;-70
2022/09/13 12:09:11;;;;;;;2.15;1.40;;;31.00;99.90;;;;;;5068290;28;20164;-78
2022/09/13 12:11:45;;;;;;;1.30;1.10;;;31.20;99.90;;;;;;5081419;28;20171;-77
2022/09/13 12:14:18;;;;;;;1.38;1.25;;;31.30;99.90;;;;;;5082747;28;20251;-74
2022/09/13 12:16:45;;;;;;;1.23;1.10;;;31.50;99.90;;;;;;5069465;28;20228;-77
2022/09/13 12:19:26;;;;;;;1.85;1.00;;;31.50;99.90;;;;;;5086035;28;20175;-72
2022/09/13 12:21:55;;;;;;;1.98;1.10;;;31.60;99.90;;;;;;5081813;28;20195;-76
2022/09/13 12:24:44;;;;;;;1.75;1.30;;;31.70;99.90;;;;;;5081824;28;20195;-77
2022/09/13 12:27:38;;;;;;;2.05;1.30;;;31.90;99.90;;;;;;5081583;28;20347;-78
2022/09/13 12:30:17;;;;;;;1.58;1.15;;;31.90;99.90;;;;;;5072447;28;20191;-77
2022/09/13 12:32:47;;;;;;;1.38;1.10;;;32.10;99.90;;;;;;5082493;28;20259;-75
2022/09/13 12:35:35;;;;;;;1.48;1.13;;;32.10;99.90;;;;;;5081375;28;20191;-79
2022/09/13 12:38:16;;;;;;;1.60;1.10;;;32.10;99.40;;;;;;5086745;28;20167;-78
2022/09/13 12:40:56;;;;;;;1.83;1.02;;;31.90;99.70;;;;;;5085470;28;20175;-71
2022/09/13 12:44:03;;;;;;;1.98;1.17;;;31.80;99.20;;;;;;5078585;28;20202;-70
2022/09/13 12:46:48;;;;;;;2.05;1.10;;;31.70;98.70;;;;;;5073629;28;20214;-77
2022/09/13 12:49:34;;;;;;;2.22;1.10;;;31.70;99.70;;;;;;5082543;28;20218;-72
2022/09/13 12:52:17;;;;;;;1.38;1.05;;;31.70;95.50;;;;;;5065644;28;20188;-74
2022/09/13 12:54:52;;;;;;;2.33;1.00;;;31.90;99.30;;;;;;5075272;28;20203;-73
2022/09/13 12:57:38;;;;;;;1.35;1.00;;;31.90;98.70;;;;;;5064004;28;20327;-73
2022/09/13 13:00:27;;;;;;;1.25;0.90;;;31.90;98.90;;;;;;5078756;28;20235;-71
2022/09/13 13:03:10;;;;;;;1.80;1.30;;;32.00;95.90;;;;;;5078633;28;20181;-71
2022/09/13 13:05:53;;;;;;;2.63;1.02;;;32.00;97.20;;;;;;5078829;28;20195;-73
2022/09/13 13:08:18;;;;;;;1.58;1.00;;;32.00;97.80;;;;;;5076554;28;20167;-73
2022/09/13 13:10:44;;;;;;;1.55;1.02;;;31.90;99.00;;;;;;5069127;28;20183;-74
2022/09/13 13:13:10;;;;;;;1.88;1.20;;;31.80;98.30;;;;;;5062537;28;20211;-73
2022/09/13 13:15:38;;;;;;;1.55;1.35;;;31.70;98.40;;;;;;5081200;28;20172;-73
2022/09/13 13:18:43;;;;;;;1.75;1.60;;;31.60;98.10;;;;;;5077871;28;20167;-73
2022/09/13 13:21:32;;;;;;;1.20;1.10;;;31.50;97.00;;;;;;5065093;28;20204;-72
2022/09/13 13:24:15;;;;;;;2.30;1.20;;;31.40;97.00;;;;;;5071790;28;20183;-73
2022/09/13 13:26:41;;;;;;;1.70;1.33;;;31.20;97.30;;;;;;5086548;28;20228;-73